createdAt,value
2019-06-10T00:00:16.581Z,0
2019-06-10T00:02:07.495Z,0
2019-06-10T00:03:07.417Z,0
2019-06-10T00:04:12.824Z,0
2019-06-10T00:05:07.441Z,0
2019-06-10T00:06:07.248Z,0
2019-06-10T00:07:07.683Z,0
2019-06-10T00:08:07.279Z,0
2019-06-10T00:09:08.384Z,0
2019-06-10T00:10:07.705Z,0
2019-06-10T00:11:08.088Z,0
2019-06-10T00:12:12.924Z,0
2019-06-10T00:13:08.759Z,0
2019-06-10T00:14:07.620Z,0
2019-06-10T00:15:07.967Z,0
2019-06-10T00:16:08.217Z,0
2019-06-10T00:17:10.893Z,0
2019-06-10T00:18:46.091Z,0
2019-06-10T00:20:11.297Z,0
2019-06-10T00:21:08.479Z,0
2019-06-10T00:22:11.984Z,0
2019-06-10T00:23:08.569Z,0
2019-06-10T00:24:08.710Z,0
2019-06-10T00:25:08.705Z,0
2019-06-10T00:26:12.817Z,0
2019-06-10T00:27:12.162Z,0
2019-06-10T00:28:12.360Z,0
2019-06-10T00:29:12.170Z,0
2019-06-10T00:30:12.425Z,0
2019-06-10T00:31:07.117Z,0
2019-06-10T00:32:13.582Z,0
2019-06-10T00:34:12.665Z,0
2019-06-10T00:35:07.935Z,0
2019-06-10T00:36:13.954Z,0
2019-06-10T00:37:15.215Z,0
2019-06-10T00:38:14.661Z,0
2019-06-10T00:39:13.936Z,0
2019-06-10T00:40:14.571Z,0
2019-06-10T00:41:14.435Z,0
2019-06-10T00:42:15.610Z,0
2019-06-10T00:43:13.763Z,0
2019-06-10T00:45:21.530Z,0
2019-06-10T00:47:15.708Z,0
2019-06-10T00:48:32.597Z,0
2019-06-10T00:50:14.995Z,0
2019-06-10T00:52:11.187Z,0
2019-06-10T00:53:11.749Z,0
2019-06-10T00:54:15.919Z,0
2019-06-10T00:56:14.531Z,0
2019-06-10T00:58:05.971Z,0
2019-06-10T00:59:06.062Z,0
2019-06-10T01:00:26.176Z,0
2019-06-10T01:02:14.393Z,0
2019-06-10T01:04:16.268Z,0
2019-06-10T01:06:06.107Z,0
2019-06-10T01:07:04.602Z,0
2019-06-10T01:08:04.792Z,0
2019-06-10T01:09:04.717Z,0
2019-06-10T01:10:04.939Z,0
2019-06-10T01:11:27.481Z,0
2019-06-10T01:13:05.210Z,0
2019-06-10T01:14:03.576Z,0
2019-06-10T01:15:03.519Z,0
2019-06-10T01:16:03.694Z,0
2019-06-10T01:17:03.809Z,0
2019-06-10T01:18:03.745Z,0
2019-06-10T01:19:04.078Z,0
2019-06-10T01:20:03.979Z,0
2019-06-10T01:21:04.135Z,0
2019-06-10T01:22:04.102Z,0
2019-06-10T01:23:03.587Z,0
2019-06-10T01:25:03.527Z,0
2019-06-10T01:27:05.719Z,0
2019-06-10T01:29:03.133Z,0
2019-06-10T01:30:27.592Z,0
2019-06-10T01:32:03.613Z,0
2019-06-10T01:33:03.624Z,0
2019-06-10T01:34:03.689Z,0
2019-06-10T01:36:03.333Z,0
2019-06-10T01:38:03.561Z,0
2019-06-10T01:40:03.728Z,0
2019-06-10T01:42:02.698Z,0
2019-06-10T01:43:03.252Z,0
2019-06-10T01:44:03.601Z,0
2019-06-10T01:46:02.348Z,0
2019-06-10T01:47:02.815Z,0
2019-06-10T01:48:03.124Z,0
2019-06-10T01:49:02.951Z,0
2019-06-10T01:50:03.389Z,0
2019-06-10T01:52:03.488Z,0
2019-06-10T01:53:03.600Z,0
2019-06-10T01:55:03.731Z,0
2019-06-10T01:57:02.901Z,0
2019-06-10T01:58:03.404Z,0
2019-06-10T01:59:03.266Z,0
2019-06-10T02:00:26.245Z,0
2019-06-10T02:03:03.999Z,0
2019-06-10T02:05:03.677Z,0
2019-06-10T02:07:03.591Z,0
2019-06-10T02:09:02.933Z,0
2019-06-10T02:10:03.233Z,0
2019-06-10T02:12:04.264Z,0
2019-06-10T02:14:02.635Z,0
2019-06-10T02:15:03.122Z,0
2019-06-10T02:18:03.102Z,0
2019-06-10T02:19:04.601Z,0
2019-06-10T02:20:03.335Z,0
2019-06-10T02:21:03.604Z,0
2019-06-10T02:23:02.741Z,0
2019-06-10T02:24:02.802Z,0
2019-06-10T02:25:03.582Z,0
2019-06-10T02:27:03.638Z,0
2019-06-10T02:29:03.588Z,0
2019-06-10T02:30:55.343Z,0
2019-06-10T02:32:05.608Z,0
2019-06-10T02:34:03.672Z,0
2019-06-10T02:35:48.956Z,0
2019-06-10T02:37:05.355Z,0
2019-06-10T02:39:05.074Z,0
2019-06-10T02:40:05.092Z,0
2019-06-10T02:41:05.259Z,0
2019-06-10T02:42:05.216Z,0
2019-06-10T02:43:03.929Z,0
2019-06-10T02:44:04.856Z,0
2019-06-10T02:45:04.456Z,0
2019-06-10T02:46:05.547Z,0
2019-06-10T02:47:03.786Z,0
2019-06-10T02:48:04.700Z,0
2019-06-10T02:50:09.133Z,0
2019-06-10T02:52:03.998Z,0
2019-06-10T02:53:04.404Z,0
2019-06-10T02:54:05.361Z,0
2019-06-10T02:55:04.893Z,0
2019-06-10T02:56:04.608Z,0
2019-06-10T02:57:04.929Z,0
2019-06-10T02:58:04.334Z,0
2019-06-10T02:59:03.901Z,0
2019-06-10T03:00:49.024Z,0
2019-06-10T03:03:04.307Z,0
2019-06-10T03:04:05.131Z,0
2019-06-10T03:05:05.216Z,0
2019-06-10T03:06:09.375Z,0
2019-06-10T03:07:03.690Z,0
2019-06-10T03:08:04.283Z,0
2019-06-10T03:09:04.181Z,0
2019-06-10T03:10:05.254Z,0
2019-06-10T03:11:04.349Z,0
2019-06-10T03:12:05.325Z,0
2019-06-10T03:13:03.469Z,0
2019-06-10T03:15:02.837Z,0
2019-06-10T03:16:03.384Z,0
2019-06-10T03:17:03.468Z,0
2019-06-10T03:18:03.487Z,0
2019-06-10T03:19:03.328Z,0
2019-06-10T03:21:03.525Z,0
2019-06-10T03:23:03.574Z,0
2019-06-10T03:25:03.602Z,0
2019-06-10T03:26:04.724Z,0
2019-06-10T03:28:03.366Z,0
2019-06-10T03:30:58.746Z,0
2019-06-10T03:32:06.048Z,0
2019-06-10T03:33:05.597Z,0
2019-06-10T03:34:05.893Z,0
2019-06-10T03:35:06.296Z,0
2019-06-10T03:36:03.730Z,0
2019-06-10T03:39:03.744Z,0
2019-06-10T03:41:03.686Z,0
2019-06-10T03:42:02.906Z,0
2019-06-10T03:43:02.919Z,0
2019-06-10T03:44:03.452Z,0
2019-06-10T03:45:03.698Z,0
2019-06-10T03:46:03.642Z,0
2019-06-10T03:47:03.622Z,0
2019-06-10T03:48:04.044Z,0
2019-06-10T03:49:03.536Z,0
2019-06-10T03:50:03.652Z,0
2019-06-10T03:51:03.798Z,0
2019-06-10T03:53:04.739Z,0
2019-06-10T03:54:03.299Z,0
2019-06-10T03:55:03.523Z,0
2019-06-10T03:56:03.662Z,0
2019-06-10T03:58:02.778Z,0
2019-06-10T03:59:03.513Z,0
2019-06-10T04:00:14.487Z,0
2019-06-10T04:03:03.440Z,0
2019-06-10T04:04:03.448Z,0
2019-06-10T04:06:03.350Z,0
2019-06-10T04:07:04.310Z,0
2019-06-10T04:08:03.235Z,0
2019-06-10T04:09:03.186Z,0
2019-06-10T04:10:03.466Z,0
2019-06-10T04:11:03.456Z,0
2019-06-10T04:13:02.994Z,0
2019-06-10T04:14:03.353Z,0
2019-06-10T04:15:03.524Z,0
2019-06-10T04:17:03.659Z,0
2019-06-10T04:18:04.362Z,0
2019-06-10T04:19:03.571Z,0
2019-06-10T04:20:15.830Z,0
2019-06-10T04:22:03.755Z,0
2019-06-10T04:24:02.856Z,0
2019-06-10T04:25:03.554Z,0
2019-06-10T04:27:03.335Z,0
2019-06-10T04:28:03.546Z,0
2019-06-10T04:29:03.475Z,0
2019-06-10T04:30:03.723Z,0
2019-06-10T04:32:03.535Z,0
2019-06-10T04:34:03.662Z,0
2019-06-10T04:35:03.434Z,0
2019-06-10T04:36:03.430Z,0
2019-06-10T04:37:03.723Z,0
2019-06-10T04:39:03.667Z,0
2019-06-10T04:40:03.346Z,0
2019-06-10T04:41:03.835Z,0
2019-06-10T04:42:03.311Z,0
2019-06-10T04:43:03.306Z,0
2019-06-10T04:44:03.283Z,0
2019-06-10T04:45:03.578Z,0
2019-06-10T04:46:03.569Z,0
2019-06-10T04:48:03.700Z,0
2019-06-10T04:50:03.634Z,0
2019-06-10T04:52:03.625Z,0
2019-06-10T04:53:02.885Z,0
2019-06-10T04:54:03.490Z,0
2019-06-10T04:55:03.044Z,0
2019-06-10T04:56:03.501Z,0
2019-06-10T04:57:03.288Z,0
2019-06-10T04:58:03.245Z,0
2019-06-10T04:59:03.607Z,0
2019-06-10T05:00:15.105Z,0
2019-06-10T05:02:06.064Z,0
2019-06-10T05:04:03.643Z,0
2019-06-10T05:05:03.506Z,0
2019-06-10T05:06:03.769Z,0
2019-06-10T05:08:03.087Z,0
2019-06-10T05:09:04.481Z,0
2019-06-10T05:10:03.589Z,0
2019-06-10T05:11:04.144Z,0
2019-06-10T05:12:03.260Z,0
2019-06-10T05:13:03.472Z,0
2019-06-10T05:14:03.306Z,0
2019-06-10T05:15:03.951Z,0
2019-06-10T05:16:04.213Z,0
2019-06-10T05:18:03.629Z,0
2019-06-10T05:19:04.239Z,0
2019-06-10T05:21:03.647Z,0
2019-06-10T05:22:03.563Z,0
2019-06-10T05:24:03.331Z,0
2019-06-10T05:26:03.433Z,0
2019-06-10T05:28:03.448Z,0
2019-06-10T05:29:03.538Z,0
2019-06-10T05:31:03.323Z,0
2019-06-10T05:32:03.497Z,0
2019-06-10T05:34:02.908Z,0
2019-06-10T05:35:03.934Z,0
2019-06-10T05:37:03.072Z,0
2019-06-10T05:38:03.434Z,0
2019-06-10T05:39:03.252Z,0
2019-06-10T05:40:03.719Z,0
2019-06-10T05:42:03.668Z,0
2019-06-10T05:43:02.809Z,0
2019-06-10T05:44:03.015Z,0
2019-06-10T05:45:03.728Z,0
2019-06-10T05:47:04.492Z,0
2019-06-10T05:49:03.424Z,0
2019-06-10T05:50:03.662Z,0
2019-06-10T05:51:07.353Z,0
2019-06-10T05:54:03.007Z,0
2019-06-10T05:55:03.299Z,0
2019-06-10T05:56:03.558Z,0
2019-06-10T05:57:03.470Z,0
2019-06-10T05:59:04.685Z,0
2019-06-10T06:00:15.353Z,0
2019-06-10T06:03:03.378Z,0
2019-06-10T06:04:03.582Z,0
2019-06-10T06:06:03.586Z,0
2019-06-10T06:07:03.591Z,0
2019-06-10T06:08:09.447Z,0
2019-06-10T06:10:02.934Z,0
2019-06-10T06:11:03.640Z,0
2019-06-10T06:12:02.863Z,0
2019-06-10T06:13:03.439Z,0
2019-06-10T06:14:03.074Z,0
2019-06-10T06:15:03.603Z,0
2019-06-10T06:16:03.796Z,0
2019-06-10T06:18:14.362Z,0
2019-06-10T06:20:03.635Z,0
2019-06-10T06:21:47.686Z,0
2019-06-10T06:23:03.072Z,0
2019-06-10T06:24:04.476Z,0
2019-06-10T06:25:04.314Z,0
2019-06-10T06:26:04.432Z,0
2019-06-10T06:27:03.272Z,0
2019-06-10T06:28:03.245Z,0
2019-06-10T06:30:19.183Z,0
2019-06-10T06:33:03.634Z,0
2019-06-10T06:34:03.439Z,0
2019-06-10T06:36:03.977Z,0
2019-06-10T06:38:03.621Z,0
2019-06-10T06:40:03.208Z,0
2019-06-10T06:41:03.659Z,0
2019-06-10T06:43:03.629Z,0
2019-06-10T06:45:03.482Z,0
2019-06-10T06:46:03.670Z,0
2019-06-10T06:48:03.276Z,0
2019-06-10T06:49:03.440Z,0
2019-06-10T06:51:09.210Z,0
2019-06-10T06:52:03.570Z,0
2019-06-10T06:53:56.214Z,0
2019-06-10T06:55:03.270Z,0.3
2019-06-10T06:56:04.177Z,0.3
2019-06-10T06:57:03.997Z,0.3
2019-06-10T06:58:03.754Z,0.3
2019-06-10T07:01:14.153Z,0.3
2019-06-10T07:03:03.409Z,0.3
2019-06-10T07:04:03.064Z,0.3
2019-06-10T07:05:03.834Z,0.3
2019-06-10T07:07:03.572Z,0.3
2019-06-10T07:08:03.483Z,0.3
2019-06-10T07:09:08.653Z,0.3
2019-06-10T07:10:03.779Z,0.3
2019-06-10T07:12:02.915Z,0.6
2019-06-10T07:13:03.136Z,0.6
2019-06-10T07:14:04.132Z,0.6
2019-06-10T07:15:04.648Z,0.6
2019-06-10T07:16:03.471Z,0.6
2019-06-10T07:17:04.288Z,0.6
2019-06-10T07:19:02.886Z,0.9
2019-06-10T07:20:03.573Z,0.9
2019-06-10T07:21:03.400Z,0.9
2019-06-10T07:22:16.800Z,0.9
2019-06-10T07:24:03.546Z,0.9
2019-06-10T07:25:07.020Z,0.9
2019-06-10T07:27:03.483Z,0.9
2019-06-10T07:29:03.259Z,0.9
2019-06-10T07:30:15.486Z,0.9
2019-06-10T07:31:28.247Z,0.9
2019-06-10T07:34:03.044Z,0.9
2019-06-10T07:35:03.440Z,0.9
2019-06-10T07:36:03.670Z,0.9
2019-06-10T07:38:03.935Z,0.9
2019-06-10T07:39:03.859Z,0.9
2019-06-10T07:40:03.567Z,0.9
2019-06-10T07:42:03.402Z,0.9
2019-06-10T07:43:03.381Z,0.9
2019-06-10T07:44:03.377Z,0.9
2019-06-10T07:45:03.692Z,0.9
2019-06-10T07:46:03.838Z,0.9
2019-06-10T07:47:03.463Z,0.9
2019-06-10T07:49:03.691Z,0.9
2019-06-10T07:50:03.459Z,0.9
2019-06-10T07:51:03.329Z,0.9
2019-06-10T07:52:23.787Z,0.9
2019-06-10T07:54:03.530Z,0.9
2019-06-10T07:55:03.086Z,0.9
2019-06-10T07:56:03.797Z,0.6
2019-06-10T07:58:03.523Z,0.6
2019-06-10T07:59:04.308Z,0.6
2019-06-10T08:00:03.564Z,0.6
2019-06-10T08:01:03.722Z,0.6
2019-06-10T08:03:02.789Z,0.6
2019-06-10T08:04:03.463Z,0.6
2019-06-10T08:05:03.989Z,0.6
2019-06-10T08:06:03.823Z,0.6
2019-06-10T08:07:03.682Z,0.6
2019-06-10T08:09:02.829Z,0.6
2019-06-10T08:10:03.524Z,0.6
2019-06-10T08:11:03.963Z,0.6
2019-06-10T08:12:06.360Z,0.3
2019-06-10T08:14:05.070Z,0.3
2019-06-10T08:15:03.599Z,0.3
2019-06-10T08:16:03.691Z,0.3
2019-06-10T08:18:04.651Z,0.3
2019-06-10T08:19:50.855Z,0
2019-06-10T08:21:03.672Z,0
2019-06-10T08:22:03.601Z,0
2019-06-10T08:23:03.561Z,0
2019-06-10T08:24:03.811Z,0
2019-06-10T08:25:05.289Z,0
2019-06-10T08:26:03.864Z,0
2019-06-10T08:28:03.461Z,0
2019-06-10T08:29:04.794Z,0
2019-06-10T08:30:27.979Z,0
2019-06-10T08:32:03.687Z,0
2019-06-10T08:33:03.779Z,0
2019-06-10T08:34:03.453Z,0
2019-06-10T08:35:03.508Z,0
2019-06-10T08:36:04.513Z,0
2019-06-10T08:37:04.898Z,0
2019-06-10T08:39:03.601Z,0
2019-06-10T08:40:04.091Z,0
2019-06-10T08:41:03.643Z,0
2019-06-10T08:42:03.755Z,0
2019-06-10T08:43:04.675Z,0
2019-06-10T08:45:03.839Z,0
2019-06-10T08:46:03.861Z,0
2019-06-10T08:48:03.095Z,0
2019-06-10T08:49:03.524Z,0
2019-06-10T08:50:03.575Z,0
2019-06-10T08:51:04.401Z,0
2019-06-10T08:52:04.092Z,0
2019-06-10T08:53:18.556Z,0
2019-06-10T08:55:03.787Z,0
2019-06-10T08:56:03.358Z,0
2019-06-10T08:57:04.945Z,0
2019-06-10T08:58:03.242Z,0
2019-06-10T08:59:03.599Z,0
2019-06-10T09:00:25.516Z,0
2019-06-10T09:02:03.760Z,0
2019-06-10T09:03:04.565Z,0
2019-06-10T09:04:03.585Z,0
2019-06-10T09:05:04.089Z,0
2019-06-10T09:06:03.793Z,0
2019-06-10T09:07:04.606Z,0
2019-06-10T09:08:03.590Z,0
2019-06-10T09:11:03.261Z,0
2019-06-10T09:12:04.677Z,0
2019-06-10T09:13:03.151Z,0
2019-06-10T09:15:04.107Z,0
2019-06-10T09:16:19.771Z,0
2019-06-10T09:18:02.996Z,0
2019-06-10T09:19:02.887Z,0
2019-06-10T09:20:03.301Z,0
2019-06-10T09:21:03.154Z,0
2019-06-10T09:22:04.226Z,0
2019-06-10T09:23:26.071Z,0
2019-06-10T09:25:03.890Z,0
2019-06-10T09:26:04.083Z,0
2019-06-10T09:28:03.715Z,0
2019-06-10T09:30:03.580Z,0
2019-06-10T09:31:05.767Z,0
2019-06-10T09:32:03.758Z,0
2019-06-10T09:33:05.140Z,0
2019-06-10T09:34:04.375Z,0
2019-06-10T09:35:04.405Z,0
2019-06-10T09:36:04.145Z,0
2019-06-10T09:37:04.381Z,0
2019-06-10T09:38:04.069Z,0
2019-06-10T09:39:04.301Z,0
2019-06-10T09:40:03.941Z,0
2019-06-10T09:41:06.779Z,0
2019-06-10T09:42:07.501Z,0
2019-06-10T09:44:03.702Z,0
2019-06-10T09:45:03.977Z,0
2019-06-10T09:46:04.101Z,0
2019-06-10T09:47:03.932Z,0
2019-06-10T09:48:04.311Z,0
2019-06-10T09:50:03.585Z,0
2019-06-10T09:51:03.445Z,0
2019-06-10T09:52:03.844Z,0
2019-06-10T09:53:04.408Z,0
2019-06-10T09:54:07.365Z,0
2019-06-10T09:55:03.532Z,0
2019-06-10T09:56:04.701Z,0
2019-06-10T09:57:03.750Z,0
2019-06-10T09:58:03.600Z,0
2019-06-10T09:59:04.234Z,0
2019-06-10T10:00:04.716Z,0
2019-06-10T10:01:05.005Z,0
2019-06-10T10:02:07.643Z,0
2019-06-10T10:03:03.749Z,0
2019-06-10T10:05:04.039Z,0
2019-06-10T10:06:16.410Z,0
2019-06-10T10:08:02.848Z,0
2019-06-10T10:09:04.413Z,0
2019-06-10T10:10:05.762Z,0
2019-06-10T10:11:03.811Z,0
2019-06-10T10:13:03.270Z,0
2019-06-10T10:14:16.296Z,0
2019-06-10T10:15:34.826Z,0
2019-06-10T10:17:05.293Z,0
2019-06-10T10:18:03.275Z,0
2019-06-10T10:19:05.935Z,0
2019-06-10T10:20:03.626Z,0
2019-06-10T10:21:04.335Z,0
2019-06-10T10:22:03.410Z,0
2019-06-10T10:24:15.419Z,0
2019-06-10T10:26:03.837Z,0
2019-06-10T10:27:13.680Z,0
2019-06-10T10:29:03.081Z,0
2019-06-10T10:30:04.277Z,0
2019-06-10T10:31:05.121Z,0
2019-06-10T10:33:04.236Z,0
2019-06-10T10:34:03.201Z,0
2019-06-10T10:35:04.332Z,0
2019-06-10T10:36:03.621Z,0
2019-06-10T10:38:04.149Z,0
2019-06-10T10:40:04.204Z,0
2019-06-10T10:41:05.440Z,0
2019-06-10T10:42:04.188Z,0
2019-06-10T10:43:38.195Z,0
2019-06-10T10:45:03.415Z,0
2019-06-10T10:46:06.666Z,0
2019-06-10T10:47:04.044Z,0
2019-06-10T10:49:03.056Z,0
2019-06-10T10:50:03.276Z,0
2019-06-10T10:51:04.162Z,0
2019-06-10T10:52:03.012Z,0
2019-06-10T10:53:03.669Z,0
2019-06-10T10:54:37.095Z,0
2019-06-10T10:56:03.086Z,0
2019-06-10T10:57:03.705Z,0
2019-06-10T10:58:03.522Z,0
2019-06-10T11:00:03.614Z,0
2019-06-10T11:01:05.427Z,0
2019-06-10T11:02:03.465Z,0
2019-06-10T11:03:03.708Z,0
2019-06-10T11:04:04.230Z,0
2019-06-10T11:05:03.678Z,0
2019-06-10T11:07:02.561Z,0
2019-06-10T11:08:04.705Z,0
2019-06-10T11:10:04.786Z,0
2019-06-10T11:11:06.306Z,0
2019-06-10T11:12:03.918Z,0
2019-06-10T11:14:03.908Z,0
2019-06-10T11:15:05.497Z,0
2019-06-10T11:16:03.870Z,0
2019-06-10T11:18:04.233Z,0
2019-06-10T11:20:04.161Z,0
2019-06-10T11:21:05.656Z,0
2019-06-10T11:22:03.639Z,0
2019-06-10T11:23:03.566Z,0
2019-06-10T11:24:05.199Z,0
2019-06-10T11:25:03.604Z,0
2019-06-10T11:26:03.617Z,0
2019-06-10T11:27:03.562Z,0
2019-06-10T11:28:04.490Z,0
2019-06-10T11:29:03.659Z,0
2019-06-10T11:31:04.342Z,0
2019-06-10T11:32:03.796Z,0
2019-06-10T11:33:03.728Z,0
2019-06-10T11:34:03.829Z,0
2019-06-10T11:35:04.265Z,0
2019-06-10T11:36:03.758Z,0
2019-06-10T11:38:03.633Z,0
2019-06-10T11:39:03.423Z,0
2019-06-10T11:40:03.806Z,0
2019-06-10T11:44:03.149Z,0
2019-06-10T11:45:03.243Z,0
2019-06-10T11:46:08.420Z,0
2019-06-10T11:47:03.619Z,0
2019-06-10T11:48:03.385Z,0
2019-06-10T11:49:04.296Z,0
2019-06-10T11:50:03.835Z,0
2019-06-10T11:51:05.296Z,0
2019-06-10T11:52:03.619Z,0
2019-06-10T11:53:04.624Z,0
2019-06-10T11:54:03.791Z,0
2019-06-10T11:55:19.685Z,0
2019-06-10T11:57:03.017Z,0
2019-06-10T11:58:02.872Z,0
2019-06-10T11:59:13.715Z,0
2019-06-10T12:00:17.768Z,0
2019-06-10T12:02:06.562Z,0
2019-06-10T12:03:03.909Z,0
2019-06-10T12:04:04.493Z,0
2019-06-10T12:05:04.361Z,0
2019-06-10T12:06:06.173Z,0
2019-06-10T12:08:03.473Z,0
2019-06-10T12:09:03.327Z,0
2019-06-10T12:11:03.053Z,0
2019-06-10T12:12:03.449Z,0
2019-06-10T12:13:07.770Z,0
2019-06-10T12:14:05.087Z,0
2019-06-10T12:17:58.425Z,0
2019-06-10T12:19:03.918Z,0
2019-06-10T12:20:03.778Z,0
2019-06-10T12:21:04.292Z,0
2019-06-10T12:22:08.084Z,0
2019-06-10T12:23:04.873Z,0
2019-06-10T12:25:40.057Z,0
2019-06-10T12:27:05.509Z,0
2019-06-10T12:28:08.521Z,0
2019-06-10T12:29:06.261Z,0
2019-06-10T12:30:05.490Z,0
2019-06-10T12:31:07.855Z,0
2019-06-10T12:32:08.134Z,0
2019-06-10T12:33:06.010Z,0
2019-06-10T12:34:06.391Z,0
2019-06-10T12:35:05.917Z,0
2019-06-10T12:36:07.982Z,0
2019-06-10T12:37:16.279Z,0
2019-06-10T12:39:17.699Z,0
2019-06-10T12:41:14.418Z,0
2019-06-10T12:43:08.231Z,0
2019-06-10T12:44:04.906Z,0
2019-06-10T12:45:09.038Z,0
2019-06-10T12:46:03.647Z,0
2019-06-10T12:47:08.622Z,0
2019-06-10T12:48:07.258Z,0
2019-06-10T12:49:09.049Z,0
2019-06-10T12:50:05.788Z,0
2019-06-10T12:51:10.105Z,0
2019-06-10T12:52:07.965Z,0
2019-06-10T12:53:07.659Z,0
2019-06-10T12:54:06.889Z,0
2019-06-10T12:55:04.306Z,0
2019-06-10T12:56:15.387Z,0
2019-06-10T12:58:06.297Z,0
2019-06-10T12:59:13.935Z,0
2019-06-10T13:00:26.785Z,0
2019-06-10T13:02:34.821Z,0
2019-06-10T13:04:14.049Z,0
2019-06-10T13:06:13.094Z,0
2019-06-10T13:08:06.200Z,0
2019-06-10T13:09:08.299Z,0
2019-06-10T13:10:04.384Z,0
2019-06-10T13:11:04.558Z,0
2019-06-10T13:12:04.319Z,0
2019-06-10T13:13:09.520Z,0
2019-06-10T13:14:08.789Z,0
2019-06-10T13:15:09.136Z,0
2019-06-10T13:16:14.711Z,0
2019-06-10T13:18:19.830Z,0
2019-06-10T13:20:08.586Z,0
2019-06-10T13:21:18.152Z,0
2019-06-10T13:23:36.367Z,0
2019-06-10T13:25:03.239Z,0
2019-06-10T13:26:18.214Z,0
2019-06-10T13:28:08.456Z,0
2019-06-10T13:29:17.886Z,0
2019-06-10T13:31:10.558Z,0
2019-06-10T13:32:08.366Z,0
2019-06-10T13:33:14.945Z,0
2019-06-10T13:34:15.019Z,0
2019-06-10T13:36:08.900Z,0
2019-06-10T13:37:08.823Z,0
2019-06-10T13:38:08.575Z,0
2019-06-10T13:39:13.702Z,0
2019-06-10T13:41:06.023Z,0
2019-06-10T13:42:14.701Z,0
2019-06-10T13:45:11.000Z,0
2019-06-10T13:46:11.232Z,0
2019-06-10T13:47:15.205Z,0
2019-06-10T13:48:15.161Z,0
2019-06-10T13:49:15.694Z,0
2019-06-10T13:50:14.672Z,0
2019-06-10T13:51:16.060Z,0
2019-06-10T13:52:17.213Z,0
2019-06-10T13:53:13.682Z,0
2019-06-10T13:54:14.189Z,0
2019-06-10T13:55:13.886Z,0
2019-06-10T13:56:48.059Z,0
2019-06-10T13:58:14.866Z,0
2019-06-10T13:59:14.473Z,0
2019-06-10T14:00:14.840Z,0
2019-06-10T14:01:22.505Z,0
2019-06-10T14:03:16.605Z,0
2019-06-10T14:04:26.083Z,0
2019-06-10T14:05:18.804Z,0
2019-06-10T14:06:57.056Z,0
2019-06-10T14:08:15.608Z,0
2019-06-10T14:09:17.024Z,0
2019-06-10T14:10:19.476Z,0
2019-06-10T14:12:04.270Z,0
2019-06-10T14:13:15.768Z,0
2019-06-10T14:15:17.307Z,0
2019-06-10T14:17:05.869Z,0
2019-06-10T14:18:15.412Z,0
2019-06-10T14:19:16.581Z,0
2019-06-10T14:21:18.880Z,0
2019-06-10T14:22:16.313Z,0
2019-06-10T14:24:04.438Z,0
2019-06-10T14:25:17.143Z,0
2019-06-10T14:26:17.314Z,0
2019-06-10T14:27:21.426Z,0
2019-06-10T14:28:40.241Z,0
2019-06-10T14:30:09.697Z,0
2019-06-10T14:31:48.407Z,0
2019-06-10T14:33:05.939Z,0
2019-06-10T14:34:18.785Z,0
2019-06-10T14:35:17.742Z,0
2019-06-10T14:36:16.702Z,0
2019-06-10T14:38:08.163Z,0
2019-06-10T14:39:04.225Z,0
2019-06-10T14:40:20.101Z,0
2019-06-10T14:42:10.037Z,0
2019-06-10T14:43:04.423Z,0
2019-06-10T14:44:04.826Z,0
2019-06-10T14:45:04.665Z,0
2019-06-10T14:47:04.725Z,0
2019-06-10T14:48:05.212Z,0
2019-06-10T14:50:05.142Z,0
2019-06-10T14:51:07.178Z,0
2019-06-10T14:53:04.935Z,0
2019-06-10T14:54:03.486Z,0
2019-06-10T14:56:12.422Z,0
2019-06-10T14:57:03.344Z,0
2019-06-10T14:59:03.026Z,0
2019-06-10T15:00:03.439Z,0
2019-06-10T15:01:26.019Z,0
2019-06-10T15:03:19.832Z,0
2019-06-10T15:05:03.162Z,0
2019-06-10T15:06:03.605Z,0
2019-06-10T15:07:04.097Z,0
2019-06-10T15:08:03.664Z,0
2019-06-10T15:10:03.738Z,0
2019-06-10T15:11:03.290Z,0
2019-06-10T15:12:03.310Z,0
2019-06-10T15:13:03.247Z,0
2019-06-10T15:14:03.145Z,0
2019-06-10T15:16:04.885Z,0
2019-06-10T15:17:03.229Z,0
2019-06-10T15:18:03.419Z,0
2019-06-10T15:19:29.418Z,0
2019-06-10T15:21:03.745Z,0
2019-06-10T15:23:02.970Z,0
2019-06-10T15:24:03.417Z,0
2019-06-10T15:25:03.627Z,0
2019-06-10T15:26:03.326Z,0
2019-06-10T15:27:34.083Z,0
2019-06-10T15:29:03.123Z,0
2019-06-10T15:30:33.816Z,0
2019-06-10T15:32:35.214Z,0
2019-06-10T15:34:03.340Z,0
2019-06-10T15:35:03.688Z,0
2019-06-10T15:36:03.752Z,0
2019-06-10T15:37:03.563Z,0
2019-06-10T15:38:04.505Z,0
2019-06-10T15:40:04.072Z,0
2019-06-10T15:41:03.377Z,0
2019-06-10T15:42:03.376Z,0
2019-06-10T15:43:06.689Z,0
2019-06-10T15:45:03.766Z,0
2019-06-10T15:46:03.716Z,0
2019-06-10T15:47:03.612Z,0
2019-06-10T15:48:03.704Z,0
2019-06-10T15:50:03.617Z,0
2019-06-10T15:51:03.443Z,0
2019-06-10T15:52:03.685Z,0
2019-06-10T15:53:03.474Z,0
2019-06-10T15:55:04.462Z,0
2019-06-10T15:56:56.635Z,0
2019-06-10T15:58:02.670Z,0
2019-06-10T15:59:03.530Z,0
2019-06-10T16:00:29.633Z,0
2019-06-10T16:02:03.415Z,0
2019-06-10T16:03:03.255Z,0
2019-06-10T16:04:03.636Z,0
2019-06-10T16:06:03.534Z,0
2019-06-10T16:07:03.561Z,0
2019-06-10T16:09:03.321Z,0
2019-06-10T16:10:03.227Z,0
2019-06-10T16:11:03.558Z,0
2019-06-10T16:12:03.394Z,0
2019-06-10T16:13:03.752Z,0
2019-06-10T16:14:03.235Z,0
2019-06-10T16:16:04.009Z,0
2019-06-10T16:17:03.654Z,0
2019-06-10T16:19:03.440Z,0
2019-06-10T16:20:04.130Z,0
2019-06-10T16:21:04.848Z,0
2019-06-10T16:22:03.574Z,0
2019-06-10T16:23:03.485Z,0
2019-06-10T16:25:03.770Z,0
2019-06-10T16:27:03.686Z,0
2019-06-10T16:29:03.066Z,0
2019-06-10T16:30:03.566Z,0
2019-06-10T16:32:03.448Z,0
2019-06-10T16:34:04.671Z,0
2019-06-10T16:35:04.297Z,0
2019-06-10T16:36:03.386Z,0
2019-06-10T16:38:03.518Z,0
2019-06-10T16:39:03.671Z,0
2019-06-10T16:40:03.645Z,0
2019-06-10T16:41:03.977Z,0
2019-06-10T16:42:03.346Z,0
2019-06-10T16:43:03.497Z,0
2019-06-10T16:44:03.388Z,0
2019-06-10T16:46:03.712Z,0
2019-06-10T16:47:03.599Z,0
2019-06-10T16:48:03.530Z,0
2019-06-10T16:49:03.555Z,0
2019-06-10T16:50:03.637Z,0
2019-06-10T16:51:03.756Z,0
2019-06-10T16:53:03.667Z,0
2019-06-10T16:55:02.949Z,0
2019-06-10T16:56:03.762Z,0
2019-06-10T16:57:04.223Z,0
2019-06-10T16:58:03.198Z,0
2019-06-10T16:59:03.732Z,0
2019-06-10T17:00:14.854Z,0
2019-06-10T17:03:03.191Z,0
2019-06-10T17:05:03.499Z,0
2019-06-10T17:06:03.183Z,0
2019-06-10T17:07:03.506Z,0
2019-06-10T17:08:03.600Z,0
2019-06-10T17:10:03.869Z,0
2019-06-10T17:11:03.866Z,0
2019-06-10T17:13:03.637Z,0
2019-06-10T17:14:03.598Z,0
2019-06-10T17:15:03.831Z,0
2019-06-10T17:16:03.894Z,0
2019-06-10T17:17:04.040Z,0
2019-06-10T17:18:03.255Z,0
2019-06-10T17:20:04.134Z,0
2019-06-10T17:21:04.600Z,0
2019-06-10T17:22:03.409Z,0
2019-06-10T17:23:03.510Z,0
2019-06-10T17:24:03.908Z,0
2019-06-10T17:26:03.705Z,0
2019-06-10T17:27:03.557Z,0
2019-06-10T17:28:35.695Z,0
2019-06-10T17:30:03.282Z,0
2019-06-10T17:31:04.387Z,0
2019-06-10T17:32:03.296Z,0
2019-06-10T17:33:03.482Z,0
2019-06-10T17:35:02.889Z,0.3
2019-06-10T17:36:03.944Z,0.3
2019-06-10T17:37:03.443Z,0.6
2019-06-10T17:38:03.104Z,0.6
2019-06-10T17:39:03.420Z,1.5
2019-06-10T17:40:03.504Z,2.1
2019-06-10T17:41:03.515Z,2.4
2019-06-10T17:43:02.806Z,2.7
2019-06-10T17:44:03.207Z,2.7
2019-06-10T17:46:03.822Z,2.7
2019-06-10T17:47:03.380Z,2.7
2019-06-10T17:48:03.571Z,2.7
2019-06-10T17:50:02.973Z,2.7
2019-06-10T17:51:03.410Z,2.7
2019-06-10T17:53:03.055Z,2.7
2019-06-10T17:54:03.228Z,2.7
2019-06-10T17:55:03.681Z,2.7
2019-06-10T17:56:03.812Z,2.7
2019-06-10T17:58:03.631Z,2.7
2019-06-10T17:59:03.722Z,2.7
2019-06-10T18:00:15.280Z,2.7
2019-06-10T18:02:03.618Z,2.7
2019-06-10T18:03:04.008Z,2.7
2019-06-10T18:05:03.542Z,2.7
2019-06-10T18:07:03.515Z,2.7
2019-06-10T18:09:04.368Z,2.7
2019-06-10T18:10:03.780Z,2.7
2019-06-10T18:11:03.760Z,2.7
2019-06-10T18:13:17.063Z,2.7
2019-06-10T18:15:03.880Z,2.7
2019-06-10T18:17:03.703Z,2.7
2019-06-10T18:18:06.117Z,2.7
2019-06-10T18:20:03.649Z,2.7
2019-06-10T18:21:03.887Z,2.7
2019-06-10T18:23:03.606Z,2.7
2019-06-10T18:24:08.979Z,2.7
2019-06-10T18:25:03.456Z,2.7
2019-06-10T18:26:03.713Z,2.7
2019-06-10T18:28:03.478Z,2.7
2019-06-10T18:29:13.095Z,2.7
2019-06-10T18:30:14.708Z,2.7
2019-06-10T18:32:03.773Z,2.7
2019-06-10T18:33:03.325Z,2.7
2019-06-10T18:34:03.638Z,2.7
2019-06-10T18:35:03.636Z,2.7
2019-06-10T18:37:03.249Z,2.4
2019-06-10T18:39:03.677Z,2.1
2019-06-10T18:40:03.521Z,1.2
2019-06-10T18:41:03.599Z,0.6
2019-06-10T18:42:03.727Z,0.3
2019-06-10T18:44:29.375Z,0
2019-06-10T18:46:03.878Z,0
2019-06-10T18:47:03.355Z,0
2019-06-10T18:48:03.316Z,0
2019-06-10T18:49:03.595Z,0
2019-06-10T18:51:02.758Z,0
2019-06-10T18:52:03.054Z,0
2019-06-10T18:53:04.559Z,0
2019-06-10T18:54:03.809Z,0
2019-06-10T18:55:03.650Z,0
2019-06-10T18:56:03.629Z,0
2019-06-10T18:58:02.822Z,0
2019-06-10T18:59:21.639Z,0
2019-06-10T19:01:08.470Z,0
2019-06-10T19:02:06.749Z,0
2019-06-10T19:03:17.146Z,0
2019-06-10T19:05:03.556Z,0
2019-06-10T19:06:03.492Z,0
2019-06-10T19:08:02.863Z,0
2019-06-10T19:09:03.567Z,0
2019-06-10T19:10:03.705Z,0
2019-06-10T19:12:03.184Z,0